Terminal Aerodrome Forecast
Issued by NWS Amarillo, TX

Home | Current Version | Previous Version | Text Only | Print | Product List | Glossary On
Versions: 1 2 3 4 5 6 7 8 9 10 11 12 13 14
000
FTUS44 KAMA 301700 RRA
TAFGUY
TAF
KGUY 301744Z 3018/3118 18012KT P6SM OVC100
     FM310200 18012KT 5SM -RASN BR OVC010
     FM310800 18010KT 2SM -SN BR OVC004=

USA.gov is the U.S. government's official web portal to all federal, state and local government web resources and services.